sensor_id;sensor_type;location;lat;lon;timestamp;P1;durP1;ratioP1;P2;durP2;ratioP2
17886;SDS011;9069;52.044;7.472;2024-02-28T00:02:03;22.38;;;8.75;;
17886;SDS011;9069;52.044;7.472;2024-02-28T00:04:30;26.48;;;8.35;;
17886;SDS011;9069;52.044;7.472;2024-02-28T00:06:57;58.22;;;11.68;;
17886;SDS011;9069;52.044;7.472;2024-02-28T00:09:24;23.77;;;9.13;;
17886;SDS011;9069;52.044;7.472;2024-02-28T00:11:51;21.77;;;9.13;;
17886;SDS011;9069;52.044;7.472;2024-02-28T00:14:19;28.50;;;9.02;;
17886;SDS011;9069;52.044;7.472;2024-02-28T00:16:46;26.88;;;10.07;;
17886;SDS011;9069;52.044;7.472;2024-02-28T00:19:14;40.53;;;15.32;;
17886;SDS011;9069;52.044;7.472;2024-02-28T00:21:41;39.95;;;16.33;;
17886;SDS011;9069;52.044;7.472;2024-02-28T00:24:08;33.45;;;14.52;;
17886;SDS011;9069;52.044;7.472;2024-02-28T00:26:35;40.75;;;13.52;;
17886;SDS011;9069;52.044;7.472;2024-02-28T00:29:03;31.88;;;10.25;;
17886;SDS011;9069;52.044;7.472;2024-02-28T00:31:30;29.98;;;9.68;;
17886;SDS011;9069;52.044;7.472;2024-02-28T00:33:57;30.55;;;9.70;;
17886;SDS011;9069;52.044;7.472;2024-02-28T00:36:24;35.85;;;9.50;;
17886;SDS011;9069;52.044;7.472;2024-02-28T00:38:56;24.15;;;10.55;;
17886;SDS011;9069;52.044;7.472;2024-02-28T00:41:23;27.55;;;11.68;;
17886;SDS011;9069;52.044;7.472;2024-02-28T00:43:50;32.47;;;10.23;;
17886;SDS011;9069;52.044;7.472;2024-02-28T00:46:16;19.67;;;9.40;;
17886;SDS011;9069;52.044;7.472;2024-02-28T00:48:43;24.23;;;9.20;;
17886;SDS011;9069;52.044;7.472;2024-02-28T00:51:10;19.95;;;6.82;;
17886;SDS011;9069;52.044;7.472;2024-02-28T00:53:37;16.83;;;6.90;;
17886;SDS011;9069;52.044;7.472;2024-02-28T00:56:05;11.35;;;5.80;;
17886;SDS011;9069;52.044;7.472;2024-02-28T00:58:32;23.02;;;7.10;;
17886;SDS011;9069;52.044;7.472;2024-02-28T01:00:59;26.08;;;7.25;;
17886;SDS011;9069;52.044;7.472;2024-02-28T01:03:26;24.55;;;6.93;;
17886;SDS011;9069;52.044;7.472;2024-02-28T01:05:52;14.48;;;6.43;;
17886;SDS011;9069;52.044;7.472;2024-02-28T01:08:19;16.83;;;5.60;;
17886;SDS011;9069;52.044;7.472;2024-02-28T01:10:46;18.42;;;6.10;;
17886;SDS011;9069;52.044;7.472;2024-02-28T01:13:13;16.23;;;6.35;;
17886;SDS011;9069;52.044;7.472;2024-02-28T01:15:40;26.02;;;6.80;;
17886;SDS011;9069;52.044;7.472;2024-02-28T01:18:10;12.48;;;6.43;;
17886;SDS011;9069;52.044;7.472;2024-02-28T01:20:37;12.52;;;6.53;;
17886;SDS011;9069;52.044;7.472;2024-02-28T01:23:04;17.83;;;6.63;;
17886;SDS011;9069;52.044;7.472;2024-02-28T01:25:31;16.38;;;6.20;;
17886;SDS011;9069;52.044;7.472;2024-02-28T01:27:57;14.43;;;6.03;;
17886;SDS011;9069;52.044;7.472;2024-02-28T01:30:25;15.23;;;6.57;;
17886;SDS011;9069;52.044;7.472;2024-02-28T01:32:52;12.38;;;6.43;;
17886;SDS011;9069;52.044;7.472;2024-02-28T01:35:19;13.57;;;6.28;;
17886;SDS011;9069;52.044;7.472;2024-02-28T01:37:46;11.27;;;6.00;;
17886;SDS011;9069;52.044;7.472;2024-02-28T01:40:13;20.83;;;6.57;;
17886;SDS011;9069;52.044;7.472;2024-02-28T01:42:40;13.52;;;6.30;;
17886;SDS011;9069;52.044;7.472;2024-02-28T01:45:09;12.23;;;5.78;;
17886;SDS011;9069;52.044;7.472;2024-02-28T01:47:43;18.58;;;6.38;;
17886;SDS011;9069;52.044;7.472;2024-02-28T01:50:12;21.52;;;6.22;;
17886;SDS011;9069;52.044;7.472;2024-02-28T01:52:39;18.33;;;7.07;;
17886;SDS011;9069;52.044;7.472;2024-02-28T01:55:07;13.88;;;5.63;;
17886;SDS011;9069;52.044;7.472;2024-02-28T01:57:36;15.73;;;6.35;;
17886;SDS011;9069;52.044;7.472;2024-02-28T02:00:04;13.52;;;5.82;;
17886;SDS011;9069;52.044;7.472;2024-02-28T02:02:34;12.55;;;6.43;;
17886;SDS011;9069;52.044;7.472;2024-02-28T02:05:01;25.17;;;6.30;;
17886;SDS011;9069;52.044;7.472;2024-02-28T02:07:28;12.45;;;6.28;;
17886;SDS011;9069;52.044;7.472;2024-02-28T02:09:55;29.60;;;6.90;;
17886;SDS011;9069;52.044;7.472;2024-02-28T02:12:22;25.42;;;6.10;;
17886;SDS011;9069;52.044;7.472;2024-02-28T02:14:49;15.68;;;6.50;;
17886;SDS011;9069;52.044;7.472;2024-02-28T02:17:16;12.88;;;5.60;;
17886;SDS011;9069;52.044;7.472;2024-02-28T02:19:59;10.50;;;5.25;;
17886;SDS011;9069;52.044;7.472;2024-02-28T02:22:27;28.23;;;6.70;;
17886;SDS011;9069;52.044;7.472;2024-02-28T02:25:05;52.38;;;6.85;;
17886;SDS011;9069;52.044;7.472;2024-02-28T02:27:32;23.60;;;6.55;;
17886;SDS011;9069;52.044;7.472;2024-02-28T02:29:59;76.85;;;9.38;;
17886;SDS011;9069;52.044;7.472;2024-02-28T02:32:28;56.00;;;11.13;;
17886;SDS011;9069;52.044;7.472;2024-02-28T02:34:55;28.10;;;7.70;;
17886;SDS011;9069;52.044;7.472;2024-02-28T02:37:22;36.88;;;10.20;;
17886;SDS011;9069;52.044;7.472;2024-02-28T02:39:48;30.13;;;7.80;;
17886;SDS011;9069;52.044;7.472;2024-02-28T02:42:15;34.03;;;7.55;;
17886;SDS011;9069;52.044;7.472;2024-02-28T02:44:42;21.80;;;6.07;;
17886;SDS011;9069;52.044;7.472;2024-02-28T02:47:09;37.00;;;8.30;;
17886;SDS011;9069;52.044;7.472;2024-02-28T02:49:36;53.65;;;9.32;;
17886;SDS011;9069;52.044;7.472;2024-02-28T02:52:03;34.25;;;7.75;;
17886;SDS011;9069;52.044;7.472;2024-02-28T02:54:30;50.40;;;7.70;;
17886;SDS011;9069;52.044;7.472;2024-02-28T02:56:57;13.07;;;5.70;;
17886;SDS011;9069;52.044;7.472;2024-02-28T02:59:23;17.65;;;6.30;;
17886;SDS011;9069;52.044;7.472;2024-02-28T03:01:50;25.70;;;7.72;;
17886;SDS011;9069;52.044;7.472;2024-02-28T03:04:17;12.00;;;6.38;;
17886;SDS011;9069;52.044;7.472;2024-02-28T03:06:44;32.90;;;6.75;;
17886;SDS011;9069;52.044;7.472;2024-02-28T03:09:11;23.95;;;6.15;;
17886;SDS011;9069;52.044;7.472;2024-02-28T03:11:37;17.35;;;6.13;;
17886;SDS011;9069;52.044;7.472;2024-02-28T03:14:04;45.38;;;8.75;;
17886;SDS011;9069;52.044;7.472;2024-02-28T03:16:31;53.42;;;7.72;;
17886;SDS011;9069;52.044;7.472;2024-02-28T03:18:58;80.05;;;10.82;;
17886;SDS011;9069;52.044;7.472;2024-02-28T03:21:25;51.60;;;8.95;;
17886;SDS011;9069;52.044;7.472;2024-02-28T03:23:51;41.10;;;8.60;;
17886;SDS011;9069;52.044;7.472;2024-02-28T03:26:18;48.05;;;8.70;;
17886;SDS011;9069;52.044;7.472;2024-02-28T03:28:45;51.13;;;10.82;;
17886;SDS011;9069;52.044;7.472;2024-02-28T03:31:12;24.80;;;8.27;;
17886;SDS011;9069;52.044;7.472;2024-02-28T03:33:39;30.55;;;9.00;;
17886;SDS011;9069;52.044;7.472;2024-02-28T03:36:05;26.58;;;9.20;;
17886;SDS011;9069;52.044;7.472;2024-02-28T03:38:32;67.25;;;10.38;;
17886;SDS011;9069;52.044;7.472;2024-02-28T03:40:59;48.03;;;10.65;;
17886;SDS011;9069;52.044;7.472;2024-02-28T03:43:29;44.50;;;10.82;;
17886;SDS011;9069;52.044;7.472;2024-02-28T03:45:56;24.25;;;9.02;;
17886;SDS011;9069;52.044;7.472;2024-02-28T03:48:23;56.92;;;11.40;;
17886;SDS011;9069;52.044;7.472;2024-02-28T03:50:49;34.42;;;11.15;;
17886;SDS011;9069;52.044;7.472;2024-02-28T03:53:17;36.40;;;10.60;;
17886;SDS011;9069;52.044;7.472;2024-02-28T03:55:43;46.55;;;10.70;;
17886;SDS011;9069;52.044;7.472;2024-02-28T03:58:10;49.28;;;9.82;;
17886;SDS011;9069;52.044;7.472;2024-02-28T04:00:38;54.78;;;12.40;;
17886;SDS011;9069;52.044;7.472;2024-02-28T04:03:05;83.95;;;13.60;;
17886;SDS011;9069;52.044;7.472;2024-02-28T04:05:32;33.75;;;11.07;;
17886;SDS011;9069;52.044;7.472;2024-02-28T04:07:59;33.58;;;11.30;;
17886;SDS011;9069;52.044;7.472;2024-02-28T04:10:26;54.42;;;13.73;;
17886;SDS011;9069;52.044;7.472;2024-02-28T04:12:53;51.08;;;14.30;;
17886;SDS011;9069;52.044;7.472;2024-02-28T04:15:20;82.95;;;13.38;;
17886;SDS011;9069;52.044;7.472;2024-02-28T04:17:47;68.88;;;15.00;;
17886;SDS011;9069;52.044;7.472;2024-02-28T04:20:14;44.50;;;15.15;;
17886;SDS011;9069;52.044;7.472;2024-02-28T04:22:41;52.65;;;12.95;;
17886;SDS011;9069;52.044;7.472;2024-02-28T04:25:08;32.42;;;10.55;;
17886;SDS011;9069;52.044;7.472;2024-02-28T04:27:36;62.47;;;11.65;;
17886;SDS011;9069;52.044;7.472;2024-02-28T04:30:06;22.85;;;9.43;;
17886;SDS011;9069;52.044;7.472;2024-02-28T04:32:33;28.50;;;11.48;;
17886;SDS011;9069;52.044;7.472;2024-02-28T04:35:02;36.13;;;11.38;;
17886;SDS011;9069;52.044;7.472;2024-02-28T04:37:29;72.82;;;13.63;;
17886;SDS011;9069;52.044;7.472;2024-02-28T04:39:56;33.28;;;12.77;;
17886;SDS011;9069;52.044;7.472;2024-02-28T04:42:23;100.93;;;16.38;;
17886;SDS011;9069;52.044;7.472;2024-02-28T04:44:50;50.55;;;12.20;;
17886;SDS011;9069;52.044;7.472;2024-02-28T04:47:16;55.13;;;12.40;;
17886;SDS011;9069;52.044;7.472;2024-02-28T04:49:47;48.95;;;14.00;;
17886;SDS011;9069;52.044;7.472;2024-02-28T04:52:13;58.08;;;11.88;;
17886;SDS011;9069;52.044;7.472;2024-02-28T04:54:40;49.97;;;13.18;;
17886;SDS011;9069;52.044;7.472;2024-02-28T04:57:07;51.08;;;11.85;;
17886;SDS011;9069;52.044;7.472;2024-02-28T04:59:34;72.47;;;12.77;;
17886;SDS011;9069;52.044;7.472;2024-02-28T05:02:01;41.88;;;11.60;;
17886;SDS011;9069;52.044;7.472;2024-02-28T05:04:29;50.90;;;12.38;;
17886;SDS011;9069;52.044;7.472;2024-02-28T05:06:56;65.82;;;12.98;;
17886;SDS011;9069;52.044;7.472;2024-02-28T05:09:23;37.38;;;11.43;;
17886;SDS011;9069;52.044;7.472;2024-02-28T05:11:50;40.65;;;12.55;;
17886;SDS011;9069;52.044;7.472;2024-02-28T05:14:17;28.33;;;11.32;;
17886;SDS011;9069;52.044;7.472;2024-02-28T05:16:44;38.75;;;12.45;;
17886;SDS011;9069;52.044;7.472;2024-02-28T05:19:10;45.55;;;12.73;;
17886;SDS011;9069;52.044;7.472;2024-02-28T05:21:40;23.55;;;10.90;;
17886;SDS011;9069;52.044;7.472;2024-02-28T05:24:08;64.25;;;14.63;;
17886;SDS011;9069;52.044;7.472;2024-02-28T05:26:35;68.40;;;15.15;;
17886;SDS011;9069;52.044;7.472;2024-02-28T05:29:03;59.30;;;12.27;;
17886;SDS011;9069;52.044;7.472;2024-02-28T05:31:30;69.80;;;13.07;;
17886;SDS011;9069;52.044;7.472;2024-02-28T05:33:58;54.88;;;12.32;;
17886;SDS011;9069;52.044;7.472;2024-02-28T05:36:26;27.90;;;11.43;;
17886;SDS011;9069;52.044;7.472;2024-02-28T05:38:54;39.75;;;12.55;;
17886;SDS011;9069;52.044;7.472;2024-02-28T05:41:22;33.72;;;11.20;;
17886;SDS011;9069;52.044;7.472;2024-02-28T05:43:50;34.53;;;13.23;;
17886;SDS011;9069;52.044;7.472;2024-02-28T05:46:18;44.72;;;12.52;;
17886;SDS011;9069;52.044;7.472;2024-02-28T05:48:45;37.17;;;11.90;;
17886;SDS011;9069;52.044;7.472;2024-02-28T05:51:13;29.35;;;11.98;;
17886;SDS011;9069;52.044;7.472;2024-02-28T05:53:41;29.33;;;11.82;;
17886;SDS011;9069;52.044;7.472;2024-02-28T05:56:09;38.85;;;13.27;;
17886;SDS011;9069;52.044;7.472;2024-02-28T05:58:43;26.33;;;11.50;;
17886;SDS011;9069;52.044;7.472;2024-02-28T06:01:11;46.47;;;12.35;;
17886;SDS011;9069;52.044;7.472;2024-02-28T06:03:41;27.02;;;11.23;;
17886;SDS011;9069;52.044;7.472;2024-02-28T06:06:07;35.90;;;12.60;;
17886;SDS011;9069;52.044;7.472;2024-02-28T06:08:35;43.63;;;12.38;;
17886;SDS011;9069;52.044;7.472;2024-02-28T06:11:04;43.92;;;12.15;;
17886;SDS011;9069;52.044;7.472;2024-02-28T06:13:32;50.20;;;13.20;;
17886;SDS011;9069;52.044;7.472;2024-02-28T06:15:59;43.15;;;13.88;;
17886;SDS011;9069;52.044;7.472;2024-02-28T06:18:31;30.15;;;11.20;;
17886;SDS011;9069;52.044;7.472;2024-02-28T06:21:00;49.78;;;14.77;;
17886;SDS011;9069;52.044;7.472;2024-02-28T06:23:31;39.47;;;13.32;;
17886;SDS011;9069;52.044;7.472;2024-02-28T06:25:58;41.85;;;13.77;;
17886;SDS011;9069;52.044;7.472;2024-02-28T06:28:25;38.38;;;13.63;;
17886;SDS011;9069;52.044;7.472;2024-02-28T06:30:52;49.88;;;14.48;;
17886;SDS011;9069;52.044;7.472;2024-02-28T06:33:19;36.85;;;13.07;;
17886;SDS011;9069;52.044;7.472;2024-02-28T06:35:46;32.92;;;14.00;;
17886;SDS011;9069;52.044;7.472;2024-02-28T06:38:12;32.92;;;12.95;;
17886;SDS011;9069;52.044;7.472;2024-02-28T06:40:39;28.05;;;11.48;;
17886;SDS011;9069;52.044;7.472;2024-02-28T06:43:07;46.67;;;14.43;;
17886;SDS011;9069;52.044;7.472;2024-02-28T06:45:34;33.30;;;12.43;;
17886;SDS011;9069;52.044;7.472;2024-02-28T06:48:02;62.60;;;13.52;;
17886;SDS011;9069;52.044;7.472;2024-02-28T06:50:34;49.47;;;13.05;;
17886;SDS011;9069;52.044;7.472;2024-02-28T06:53:01;47.72;;;13.98;;
17886;SDS011;9069;52.044;7.472;2024-02-28T06:55:28;56.75;;;14.40;;
17886;SDS011;9069;52.044;7.472;2024-02-28T06:57:55;64.90;;;16.55;;
17886;SDS011;9069;52.044;7.472;2024-02-28T07:00:23;41.58;;;13.48;;
17886;SDS011;9069;52.044;7.472;2024-02-28T07:02:50;29.80;;;12.27;;
17886;SDS011;9069;52.044;7.472;2024-02-28T07:05:17;51.35;;;14.05;;
17886;SDS011;9069;52.044;7.472;2024-02-28T07:07:44;31.80;;;12.75;;
17886;SDS011;9069;52.044;7.472;2024-02-28T07:10:11;57.83;;;15.07;;
17886;SDS011;9069;52.044;7.472;2024-02-28T07:12:38;33.40;;;12.85;;
17886;SDS011;9069;52.044;7.472;2024-02-28T07:15:05;50.53;;;13.60;;
17886;SDS011;9069;52.044;7.472;2024-02-28T07:17:32;41.42;;;13.95;;
17886;SDS011;9069;52.044;7.472;2024-02-28T07:19:59;36.40;;;12.52;;
17886;SDS011;9069;52.044;7.472;2024-02-28T07:22:26;44.08;;;13.75;;
17886;SDS011;9069;52.044;7.472;2024-02-28T07:24:53;58.90;;;15.40;;
17886;SDS011;9069;52.044;7.472;2024-02-28T07:27:21;51.80;;;15.77;;
17886;SDS011;9069;52.044;7.472;2024-02-28T07:29:49;38.88;;;15.52;;
17886;SDS011;9069;52.044;7.472;2024-02-28T07:32:16;53.38;;;15.60;;
17886;SDS011;9069;52.044;7.472;2024-02-28T07:34:43;41.17;;;14.23;;
17886;SDS011;9069;52.044;7.472;2024-02-28T07:37:10;50.63;;;15.70;;
17886;SDS011;9069;52.044;7.472;2024-02-28T07:39:38;55.20;;;15.23;;
17886;SDS011;9069;52.044;7.472;2024-02-28T07:42:11;30.77;;;13.75;;
17886;SDS011;9069;52.044;7.472;2024-02-28T07:44:38;39.03;;;14.77;;
17886;SDS011;9069;52.044;7.472;2024-02-28T07:47:05;36.28;;;14.95;;
17886;SDS011;9069;52.044;7.472;2024-02-28T07:49:32;87.88;;;19.40;;
17886;SDS011;9069;52.044;7.472;2024-02-28T07:51:59;42.20;;;16.40;;
17886;SDS011;9069;52.044;7.472;2024-02-28T07:54:28;59.75;;;18.25;;
17886;SDS011;9069;52.044;7.472;2024-02-28T07:56:54;47.78;;;17.23;;
17886;SDS011;9069;52.044;7.472;2024-02-28T07:59:21;38.53;;;15.27;;
17886;SDS011;9069;52.044;7.472;2024-02-28T08:01:49;47.65;;;16.70;;
17886;SDS011;9069;52.044;7.472;2024-02-28T08:04:16;48.47;;;16.65;;
17886;SDS011;9069;52.044;7.472;2024-02-28T08:06:43;47.78;;;17.20;;
17886;SDS011;9069;52.044;7.472;2024-02-28T08:09:10;39.45;;;15.55;;
17886;SDS011;9069;52.044;7.472;2024-02-28T08:11:39;42.20;;;16.27;;
17886;SDS011;9069;52.044;7.472;2024-02-28T08:14:06;42.05;;;15.70;;
17886;SDS011;9069;52.044;7.472;2024-02-28T08:16:33;41.90;;;16.90;;
17886;SDS011;9069;52.044;7.472;2024-02-28T08:19:00;50.90;;;18.70;;
17886;SDS011;9069;52.044;7.472;2024-02-28T08:21:27;34.13;;;15.20;;
17886;SDS011;9069;52.044;7.472;2024-02-28T08:23:55;42.72;;;16.27;;
17886;SDS011;9069;52.044;7.472;2024-02-28T08:26:23;51.13;;;17.75;;
17886;SDS011;9069;52.044;7.472;2024-02-28T08:28:50;45.30;;;18.30;;
17886;SDS011;9069;52.044;7.472;2024-02-28T08:31:17;44.97;;;16.88;;
17886;SDS011;9069;52.044;7.472;2024-02-28T08:33:44;48.28;;;18.27;;
17886;SDS011;9069;52.044;7.472;2024-02-28T08:36:11;48.90;;;17.42;;
17886;SDS011;9069;52.044;7.472;2024-02-28T08:38:37;41.25;;;17.15;;
17886;SDS011;9069;52.044;7.472;2024-02-28T08:41:05;44.38;;;16.98;;
17886;SDS011;9069;52.044;7.472;2024-02-28T08:43:37;43.40;;;16.70;;
17886;SDS011;9069;52.044;7.472;2024-02-28T08:46:07;44.67;;;19.35;;
17886;SDS011;9069;52.044;7.472;2024-02-28T08:48:34;53.08;;;20.50;;
17886;SDS011;9069;52.044;7.472;2024-02-28T08:51:04;58.60;;;20.40;;
17886;SDS011;9069;52.044;7.472;2024-02-28T08:53:31;53.55;;;19.25;;
17886;SDS011;9069;52.044;7.472;2024-02-28T08:55:57;52.92;;;21.60;;
17886;SDS011;9069;52.044;7.472;2024-02-28T08:58:24;57.03;;;21.40;;
17886;SDS011;9069;52.044;7.472;2024-02-28T09:00:51;50.25;;;19.95;;
17886;SDS011;9069;52.044;7.472;2024-02-28T09:03:18;51.50;;;21.13;;
17886;SDS011;9069;52.044;7.472;2024-02-28T09:05:47;52.80;;;19.90;;
17886;SDS011;9069;52.044;7.472;2024-02-28T09:08:14;48.47;;;19.08;;
17886;SDS011;9069;52.044;7.472;2024-02-28T09:10:41;44.00;;;19.25;;
17886;SDS011;9069;52.044;7.472;2024-02-28T09:13:08;51.97;;;18.98;;
17886;SDS011;9069;52.044;7.472;2024-02-28T09:15:36;49.13;;;19.58;;
17886;SDS011;9069;52.044;7.472;2024-02-28T09:18:03;48.88;;;18.70;;
17886;SDS011;9069;52.044;7.472;2024-02-28T09:20:31;44.15;;;17.63;;
17886;SDS011;9069;52.044;7.472;2024-02-28T09:22:58;47.58;;;18.88;;
17886;SDS011;9069;52.044;7.472;2024-02-28T09:25:27;40.03;;;17.92;;
17886;SDS011;9069;52.044;7.472;2024-02-28T09:27:54;50.25;;;19.85;;
17886;SDS011;9069;52.044;7.472;2024-02-28T09:30:21;46.47;;;18.92;;
17886;SDS011;9069;52.044;7.472;2024-02-28T09:32:50;45.15;;;18.38;;
17886;SDS011;9069;52.044;7.472;2024-02-28T09:35:17;47.45;;;19.17;;
17886;SDS011;9069;52.044;7.472;2024-02-28T09:37:45;53.35;;;20.23;;
17886;SDS011;9069;52.044;7.472;2024-02-28T09:40:12;48.10;;;19.58;;
17886;SDS011;9069;52.044;7.472;2024-02-28T09:42:39;52.03;;;18.80;;
17886;SDS011;9069;52.044;7.472;2024-02-28T09:45:08;48.78;;;19.35;;
17886;SDS011;9069;52.044;7.472;2024-02-28T09:47:37;41.92;;;17.70;;
17886;SDS011;9069;52.044;7.472;2024-02-28T09:50:03;40.75;;;16.77;;
17886;SDS011;9069;52.044;7.472;2024-02-28T09:52:31;39.10;;;15.90;;
17886;SDS011;9069;52.044;7.472;2024-02-28T09:54:57;42.72;;;18.70;;
17886;SDS011;9069;52.044;7.472;2024-02-28T09:57:25;41.45;;;17.38;;
17886;SDS011;9069;52.044;7.472;2024-02-28T09:59:58;43.75;;;17.85;;
17886;SDS011;9069;52.044;7.472;2024-02-28T10:02:31;46.95;;;19.92;;
17886;SDS011;9069;52.044;7.472;2024-02-28T10:05:00;49.92;;;20.40;;
17886;SDS011;9069;52.044;7.472;2024-02-28T10:07:27;50.88;;;20.58;;
17886;SDS011;9069;52.044;7.472;2024-02-28T10:09:54;44.20;;;19.88;;
17886;SDS011;9069;52.044;7.472;2024-02-28T10:12:22;52.00;;;19.92;;
17886;SDS011;9069;52.044;7.472;2024-02-28T10:14:49;48.13;;;21.13;;
17886;SDS011;9069;52.044;7.472;2024-02-28T10:17:17;44.92;;;19.65;;
17886;SDS011;9069;52.044;7.472;2024-02-28T10:19:44;50.70;;;21.05;;
17886;SDS011;9069;52.044;7.472;2024-02-28T10:22:11;47.63;;;19.30;;
17886;SDS011;9069;52.044;7.472;2024-02-28T10:24:37;45.85;;;19.70;;
17886;SDS011;9069;52.044;7.472;2024-02-28T10:27:04;48.13;;;20.67;;
17886;SDS011;9069;52.044;7.472;2024-02-28T10:29:31;51.30;;;21.83;;
17886;SDS011;9069;52.044;7.472;2024-02-28T10:32:01;52.28;;;21.17;;
17886;SDS011;9069;52.044;7.472;2024-02-28T10:34:29;46.50;;;19.70;;
17886;SDS011;9069;52.044;7.472;2024-02-28T10:36:56;45.30;;;20.80;;
17886;SDS011;9069;52.044;7.472;2024-02-28T10:39:24;44.45;;;19.77;;
17886;SDS011;9069;52.044;7.472;2024-02-28T10:41:53;44.75;;;18.92;;
17886;SDS011;9069;52.044;7.472;2024-02-28T10:44:20;47.97;;;20.30;;
17886;SDS011;9069;52.044;7.472;2024-02-28T10:46:49;50.67;;;20.38;;
17886;SDS011;9069;52.044;7.472;2024-02-28T10:49:16;45.97;;;20.33;;
17886;SDS011;9069;52.044;7.472;2024-02-28T10:51:45;45.72;;;20.27;;
17886;SDS011;9069;52.044;7.472;2024-02-28T10:54:14;52.03;;;20.50;;
17886;SDS011;9069;52.044;7.472;2024-02-28T10:56:42;47.60;;;20.42;;
17886;SDS011;9069;52.044;7.472;2024-02-28T10:59:10;54.40;;;20.98;;
17886;SDS011;9069;52.044;7.472;2024-02-28T11:01:40;51.65;;;21.17;;
17886;SDS011;9069;52.044;7.472;2024-02-28T11:04:12;48.20;;;21.00;;
17886;SDS011;9069;52.044;7.472;2024-02-28T11:06:48;47.78;;;20.90;;
17886;SDS011;9069;52.044;7.472;2024-02-28T11:09:21;53.92;;;21.50;;
17886;SDS011;9069;52.044;7.472;2024-02-28T11:11:51;43.75;;;19.30;;
17886;SDS011;9069;52.044;7.472;2024-02-28T11:14:19;45.63;;;20.40;;
17886;SDS011;9069;52.044;7.472;2024-02-28T11:16:59;43.95;;;19.13;;
17886;SDS011;9069;52.044;7.472;2024-02-28T11:19:28;45.78;;;20.33;;
17886;SDS011;9069;52.044;7.472;2024-02-28T11:21:59;45.63;;;18.55;;
17886;SDS011;9069;52.044;7.472;2024-02-28T11:24:29;38.10;;;18.02;;
17886;SDS011;9069;52.044;7.472;2024-02-28T11:26:57;43.83;;;18.90;;
17886;SDS011;9069;52.044;7.472;2024-02-28T11:29:25;42.05;;;18.33;;
17886;SDS011;9069;52.044;7.472;2024-02-28T11:31:52;46.90;;;20.55;;
17886;SDS011;9069;52.044;7.472;2024-02-28T11:34:20;43.03;;;19.00;;
17886;SDS011;9069;52.044;7.472;2024-02-28T11:36:48;40.17;;;18.67;;
17886;SDS011;9069;52.044;7.472;2024-02-28T11:39:16;41.13;;;18.33;;
17886;SDS011;9069;52.044;7.472;2024-02-28T11:41:43;44.70;;;19.10;;
17886;SDS011;9069;52.044;7.472;2024-02-28T11:44:15;39.45;;;17.98;;
17886;SDS011;9069;52.044;7.472;2024-02-28T11:46:46;38.20;;;18.17;;
17886;SDS011;9069;52.044;7.472;2024-02-28T11:49:14;41.70;;;18.08;;
17886;SDS011;9069;52.044;7.472;2024-02-28T11:51:44;41.42;;;18.90;;
17886;SDS011;9069;52.044;7.472;2024-02-28T11:54:12;46.80;;;20.48;;
17886;SDS011;9069;52.044;7.472;2024-02-28T11:56:39;50.58;;;20.58;;
17886;SDS011;9069;52.044;7.472;2024-02-28T11:59:08;37.97;;;18.40;;
17886;SDS011;9069;52.044;7.472;2024-02-28T12:01:38;40.88;;;19.80;;
17886;SDS011;9069;52.044;7.472;2024-02-28T12:04:07;45.05;;;20.45;;
17886;SDS011;9069;52.044;7.472;2024-02-28T12:06:34;43.70;;;20.50;;
17886;SDS011;9069;52.044;7.472;2024-02-28T12:09:03;47.10;;;21.23;;
17886;SDS011;9069;52.044;7.472;2024-02-28T12:11:31;47.08;;;21.15;;
17886;SDS011;9069;52.044;7.472;2024-02-28T12:13:59;43.38;;;19.05;;
17886;SDS011;9069;52.044;7.472;2024-02-28T12:16:29;41.30;;;19.90;;
17886;SDS011;9069;52.044;7.472;2024-02-28T12:18:56;44.42;;;21.00;;
17886;SDS011;9069;52.044;7.472;2024-02-28T12:21:23;41.13;;;19.50;;
17886;SDS011;9069;52.044;7.472;2024-02-28T12:23:50;41.00;;;20.05;;
17886;SDS011;9069;52.044;7.472;2024-02-28T12:26:17;37.22;;;17.73;;
17886;SDS011;9069;52.044;7.472;2024-02-28T12:28:45;39.20;;;18.45;;
17886;SDS011;9069;52.044;7.472;2024-02-28T12:31:13;42.03;;;19.15;;
17886;SDS011;9069;52.044;7.472;2024-02-28T12:33:40;43.10;;;19.63;;
17886;SDS011;9069;52.044;7.472;2024-02-28T12:36:09;33.60;;;18.13;;
17886;SDS011;9069;52.044;7.472;2024-02-28T12:38:36;39.30;;;18.33;;
17886;SDS011;9069;52.044;7.472;2024-02-28T12:41:03;36.58;;;18.02;;
17886;SDS011;9069;52.044;7.472;2024-02-28T12:43:30;36.22;;;18.27;;
17886;SDS011;9069;52.044;7.472;2024-02-28T12:45:58;35.75;;;18.05;;
17886;SDS011;9069;52.044;7.472;2024-02-28T12:48:28;34.35;;;17.25;;
17886;SDS011;9069;52.044;7.472;2024-02-28T12:50:56;38.95;;;18.05;;
17886;SDS011;9069;52.044;7.472;2024-02-28T12:53:23;32.17;;;17.17;;
17886;SDS011;9069;52.044;7.472;2024-02-28T12:55:49;37.10;;;17.73;;
17886;SDS011;9069;52.044;7.472;2024-02-28T12:58:16;37.42;;;18.15;;
17886;SDS011;9069;52.044;7.472;2024-02-28T13:00:43;40.83;;;19.63;;
17886;SDS011;9069;52.044;7.472;2024-02-28T13:03:10;38.75;;;17.42;;
17886;SDS011;9069;52.044;7.472;2024-02-28T13:05:36;36.10;;;17.42;;
17886;SDS011;9069;52.044;7.472;2024-02-28T13:08:04;35.95;;;18.00;;
17886;SDS011;9069;52.044;7.472;2024-02-28T13:10:31;40.78;;;17.33;;
17886;SDS011;9069;52.044;7.472;2024-02-28T13:13:00;37.20;;;17.48;;
17886;SDS011;9069;52.044;7.472;2024-02-28T13:15:27;37.20;;;18.30;;
17886;SDS011;9069;52.044;7.472;2024-02-28T13:17:54;39.75;;;17.52;;
17886;SDS011;9069;52.044;7.472;2024-02-28T13:20:21;39.03;;;17.65;;
17886;SDS011;9069;52.044;7.472;2024-02-28T13:22:48;37.47;;;17.48;;
17886;SDS011;9069;52.044;7.472;2024-02-28T13:25:16;39.63;;;18.40;;
17886;SDS011;9069;52.044;7.472;2024-02-28T13:27:46;34.42;;;17.85;;
17886;SDS011;9069;52.044;7.472;2024-02-28T13:30:13;40.65;;;17.70;;
17886;SDS011;9069;52.044;7.472;2024-02-28T13:32:41;40.13;;;18.23;;
17886;SDS011;9069;52.044;7.472;2024-02-28T13:35:08;33.88;;;17.98;;
17886;SDS011;9069;52.044;7.472;2024-02-28T13:37:36;37.45;;;18.90;;
17886;SDS011;9069;52.044;7.472;2024-02-28T13:40:07;36.75;;;18.10;;
17886;SDS011;9069;52.044;7.472;2024-02-28T13:42:36;37.83;;;18.40;;
17886;SDS011;9069;52.044;7.472;2024-02-28T13:45:04;30.38;;;15.95;;
17886;SDS011;9069;52.044;7.472;2024-02-28T13:47:35;33.53;;;17.15;;
17886;SDS011;9069;52.044;7.472;2024-02-28T13:50:02;35.13;;;17.30;;
17886;SDS011;9069;52.044;7.472;2024-02-28T13:52:29;35.25;;;16.65;;
17886;SDS011;9069;52.044;7.472;2024-02-28T13:54:56;34.42;;;16.63;;
17886;SDS011;9069;52.044;7.472;2024-02-28T13:57:23;32.08;;;15.73;;
17886;SDS011;9069;52.044;7.472;2024-02-28T13:59:50;33.92;;;16.83;;
17886;SDS011;9069;52.044;7.472;2024-02-28T14:02:20;33.05;;;16.38;;
17886;SDS011;9069;52.044;7.472;2024-02-28T14:04:48;38.17;;;18.08;;
17886;SDS011;9069;52.044;7.472;2024-02-28T14:07:15;38.67;;;16.95;;
17886;SDS011;9069;52.044;7.472;2024-02-28T14:09:42;32.80;;;15.75;;
17886;SDS011;9069;52.044;7.472;2024-02-28T14:12:11;32.65;;;16.35;;
17886;SDS011;9069;52.044;7.472;2024-02-28T14:14:38;37.60;;;17.00;;
17886;SDS011;9069;52.044;7.472;2024-02-28T14:17:05;34.05;;;16.30;;
17886;SDS011;9069;52.044;7.472;2024-02-28T14:19:33;38.92;;;17.10;;
17886;SDS011;9069;52.044;7.472;2024-02-28T14:22:02;37.58;;;17.52;;
17886;SDS011;9069;52.044;7.472;2024-02-28T14:24:30;36.35;;;17.33;;
17886;SDS011;9069;52.044;7.472;2024-02-28T14:26:57;36.45;;;17.05;;
17886;SDS011;9069;52.044;7.472;2024-02-28T14:29:24;42.65;;;18.10;;
17886;SDS011;9069;52.044;7.472;2024-02-28T14:31:51;32.80;;;17.63;;
17886;SDS011;9069;52.044;7.472;2024-02-28T14:37:09;36.60;;;16.90;;
17886;SDS011;9069;52.044;7.472;2024-02-28T14:39:35;36.88;;;18.15;;
17886;SDS011;9069;52.044;7.472;2024-02-28T14:42:02;41.03;;;17.98;;
17886;SDS011;9069;52.044;7.472;2024-02-28T14:44:29;39.25;;;19.00;;